createdAt,value
2022-09-23T00:00:23.596Z,11.31
2022-09-23T00:02:28.887Z,11.31
2022-09-23T00:04:32.854Z,11.31
2022-09-23T00:06:36.530Z,11.30
2022-09-23T00:08:41.613Z,11.29
2022-09-23T00:10:45.568Z,11.27
2022-09-23T00:12:49.588Z,11.26
2022-09-23T00:14:53.280Z,11.24
2022-09-23T00:16:57.511Z,11.21
2022-09-23T00:19:03.138Z,11.17
2022-09-23T00:21:07.415Z,11.12
2022-09-23T00:23:11.083Z,11.10
2022-09-23T00:25:14.545Z,11.08
2022-09-23T00:27:21.218Z,11.02
2022-09-23T00:29:25.036Z,10.90
2022-09-23T00:31:28.920Z,10.84
2022-09-23T00:33:32.397Z,10.87
2022-09-23T00:35:38.770Z,10.89
2022-09-23T00:37:42.221Z,10.90
2022-09-23T00:39:46.796Z,10.90
2022-09-23T00:41:50.809Z,10.89
2022-09-23T00:43:56.607Z,10.86
2022-09-23T00:46:00.352Z,10.83
2022-09-23T00:48:05.240Z,10.82
2022-09-23T00:50:14.326Z,10.82
2022-09-23T00:52:21.850Z,10.82
2022-09-23T00:54:27.850Z,10.80
2022-09-23T00:56:32.580Z,10.79
2022-09-23T00:58:40.792Z,10.78
2022-09-23T01:00:44.298Z,10.78
2022-09-23T01:02:47.930Z,10.81
2022-09-23T01:04:52.750Z,10.79
2022-09-23T01:06:56.362Z,10.79
2022-09-23T01:09:01.035Z,10.79
2022-09-23T01:11:16.044Z,10.77
2022-09-23T01:13:25.589Z,10.75
2022-09-23T01:15:39.440Z,10.72
2022-09-23T01:17:52.304Z,10.70
2022-09-23T01:20:45.390Z,10.65
2022-09-23T01:22:57.307Z,10.65
2022-09-23T01:25:24.021Z,10.64
2022-09-23T01:27:44.533Z,10.62
2022-09-23T01:30:11.213Z,10.60
2022-09-23T01:32:21.690Z,10.59
2022-09-23T01:34:32.246Z,10.58
2022-09-23T01:36:41.574Z,10.56
2022-09-23T01:38:54.779Z,10.55
2022-09-23T01:41:04.789Z,10.54
2022-09-23T01:43:15.767Z,10.53
2022-09-23T01:45:24.071Z,10.53
2022-09-23T01:47:34.634Z,10.54
2022-09-23T01:49:45.207Z,10.53
2022-09-23T01:51:52.983Z,10.54
2022-09-23T01:54:02.753Z,10.52
2022-09-23T01:56:12.925Z,10.50
2022-09-23T01:58:24.060Z,10.48
2022-09-23T02:00:33.012Z,10.46
2022-09-23T02:02:42.203Z,10.46
2022-09-23T02:04:50.629Z,10.44
2022-09-23T02:06:59.553Z,10.42
2022-09-23T02:09:07.143Z,10.42
2022-09-23T02:11:15.391Z,10.39
2022-09-23T02:13:22.245Z,10.39
2022-09-23T02:15:32.085Z,10.39
2022-09-23T02:17:44.266Z,10.39
2022-09-23T02:19:52.616Z,10.38
2022-09-23T02:22:02.487Z,10.37
2022-09-23T02:24:12.416Z,10.36
2022-09-23T02:26:20.824Z,10.33
2022-09-23T02:28:31.237Z,10.30
2022-09-23T02:30:45.020Z,10.30
2022-09-23T02:32:56.312Z,10.29
2022-09-23T02:35:07.319Z,10.27
2022-09-23T02:37:24.946Z,10.24
2022-09-23T02:39:37.336Z,10.23
2022-09-23T02:41:50.392Z,10.21
2022-09-23T02:44:01.107Z,10.20
2022-09-23T02:46:06.432Z,10.19
2022-09-23T02:48:18.092Z,10.16
2022-09-23T02:50:22.916Z,10.15
2022-09-23T02:52:26.997Z,10.13
2022-09-23T02:54:32.919Z,10.11
2022-09-23T02:56:37.500Z,10.09
2022-09-23T02:58:41.229Z,10.07
2022-09-23T03:01:02.325Z,10.06
2022-09-23T03:03:31.767Z,10.05
2022-09-23T03:05:43.501Z,10.05
2022-09-23T03:07:58.917Z,10.03
2022-09-23T03:10:12.888Z,10.03
2022-09-23T03:12:25.425Z,9.99
2022-09-23T03:14:38.355Z,9.95
2022-09-23T03:16:48.006Z,9.92
2022-09-23T03:19:00.096Z,9.90
2022-09-23T03:21:09.268Z,9.90
2022-09-23T03:23:16.227Z,9.91
2022-09-23T03:25:24.083Z,9.90
2022-09-23T03:27:31.708Z,9.90
2022-09-23T03:29:37.657Z,9.89
2022-09-23T03:31:42.639Z,9.86
2022-09-23T03:33:51.980Z,9.81
2022-09-23T03:36:19.660Z,9.79
2022-09-23T03:38:26.485Z,9.74
2022-09-23T03:40:33.624Z,9.70
2022-09-23T03:42:39.507Z,9.68
2022-09-23T03:44:45.685Z,9.69
2022-09-23T03:46:51.006Z,9.70
2022-09-23T03:48:56.625Z,9.72
2022-09-23T03:51:10.722Z,9.73
2022-09-23T03:53:14.834Z,9.72
2022-09-23T03:55:19.471Z,9.72
2022-09-23T03:57:23.722Z,9.74
2022-09-23T03:59:28.077Z,9.73
2022-09-23T04:01:31.921Z,9.74
2022-09-23T04:03:35.477Z,9.73
2022-09-23T04:05:39.360Z,9.73
2022-09-23T04:07:44.710Z,9.75
2022-09-23T04:09:48.639Z,9.76
2022-09-23T04:11:52.413Z,9.76
2022-09-23T04:13:57.371Z,9.75
2022-09-23T04:16:01.386Z,9.76
2022-09-23T04:18:05.271Z,9.75
2022-09-23T04:20:09.850Z,9.74
2022-09-23T04:22:13.967Z,9.75
2022-09-23T04:24:19.353Z,9.74
2022-09-23T04:26:22.999Z,9.73
2022-09-23T04:28:26.581Z,9.71
2022-09-23T04:30:30.287Z,9.70
2022-09-23T04:32:33.959Z,9.69
2022-09-23T04:34:37.498Z,9.70
2022-09-23T04:36:41.293Z,9.70
2022-09-23T04:38:46.329Z,9.67
2022-09-23T04:40:51.900Z,9.65
2022-09-23T04:42:55.735Z,9.64
2022-09-23T04:44:59.391Z,9.61
2022-09-23T04:47:04.569Z,9.59
2022-09-23T04:49:08.531Z,9.60
2022-09-23T04:51:14.633Z,9.63
2022-09-23T04:53:19.379Z,9.63
2022-09-23T04:55:23.139Z,9.63
2022-09-23T04:57:28.503Z,9.62
2022-09-23T04:59:32.473Z,9.61
2022-09-23T05:01:36.964Z,9.60
2022-09-23T05:03:41.252Z,9.60
2022-09-23T05:05:44.899Z,9.62
2022-09-23T05:07:49.078Z,9.60
2022-09-23T05:09:52.860Z,9.57
2022-09-23T05:11:56.666Z,9.56
2022-09-23T05:14:01.911Z,9.55
2022-09-23T05:16:08.297Z,9.55
2022-09-23T05:18:12.202Z,9.55
2022-09-23T05:20:15.884Z,9.56
2022-09-23T05:22:20.951Z,9.59
2022-09-23T05:24:25.254Z,9.63
2022-09-23T05:26:31.250Z,9.64
2022-09-23T05:28:36.362Z,9.66
2022-09-23T05:30:42.092Z,9.67
2022-09-23T05:32:45.793Z,9.67
2022-09-23T05:34:49.514Z,9.67
2022-09-23T05:36:53.651Z,9.65
2022-09-23T05:38:58.815Z,9.63
2022-09-23T05:41:04.072Z,9.63
2022-09-23T05:43:07.987Z,9.61
2022-09-23T05:45:11.871Z,9.63
2022-09-23T05:47:17.178Z,9.63
2022-09-23T05:49:29.549Z,9.61
2022-09-23T05:51:41.765Z,9.61
2022-09-23T05:53:46.186Z,9.59
2022-09-23T05:55:49.735Z,9.56
2022-09-23T05:57:53.306Z,9.54
2022-09-23T05:59:57.326Z,9.55
2022-09-23T06:02:01.460Z,9.56
2022-09-23T06:04:09.259Z,9.58
2022-09-23T06:06:15.822Z,9.60
2022-09-23T06:08:19.700Z,9.59
2022-09-23T06:10:23.392Z,9.59
2022-09-23T06:12:27.351Z,9.58
2022-09-23T06:14:31.120Z,9.57
2022-09-23T06:16:36.567Z,9.59
2022-09-23T06:18:41.308Z,9.63
2022-09-23T06:20:46.516Z,9.65
2022-09-23T06:22:54.730Z,9.67
2022-09-23T06:24:59.276Z,9.71
2022-09-23T06:27:03.140Z,9.74
2022-09-23T06:29:11.789Z,9.75
2022-09-23T06:31:17.424Z,9.77
2022-09-23T06:33:33.867Z,9.79
2022-09-23T06:35:40.585Z,9.84
2022-09-23T06:37:46.294Z,9.87
2022-09-23T06:39:50.269Z,9.89
2022-09-23T06:41:54.546Z,9.90
2022-09-23T06:43:59.608Z,9.94
2022-09-23T06:46:05.139Z,10.00
2022-09-23T06:48:10.372Z,10.06
2022-09-23T06:50:14.110Z,10.10
2022-09-23T06:52:17.830Z,10.12
2022-09-23T06:54:23.024Z,10.16
2022-09-23T06:56:26.603Z,10.19
2022-09-23T06:58:30.535Z,10.22
2022-09-23T07:00:34.125Z,10.24
2022-09-23T07:02:37.621Z,10.26
2022-09-23T07:04:41.519Z,10.31
2022-09-23T07:06:45.421Z,10.37
2022-09-23T07:08:49.073Z,10.42
2022-09-23T07:10:54.991Z,10.49
2022-09-23T07:13:03.441Z,10.57
2022-09-23T07:15:08.137Z,10.64
2022-09-23T07:17:12.847Z,10.71
2022-09-23T07:19:16.924Z,10.77
2022-09-23T07:21:21.351Z,10.82
2022-09-23T07:23:25.328Z,10.85
2022-09-23T07:25:29.540Z,10.91
2022-09-23T07:27:34.976Z,10.99
2022-09-23T07:29:47.781Z,11.08
2022-09-23T07:31:54.020Z,11.16
2022-09-23T07:34:01.367Z,11.26
2022-09-23T07:36:10.983Z,11.38
2022-09-23T07:38:14.967Z,11.48
2022-09-23T07:40:18.926Z,11.57
2022-09-23T07:42:22.528Z,11.66
2022-09-23T07:44:27.858Z,11.73
2022-09-23T07:46:33.757Z,11.79
2022-09-23T07:48:38.337Z,11.84
2022-09-23T07:50:42.346Z,11.89
2022-09-23T07:52:46.648Z,11.91
2022-09-23T07:54:50.667Z,11.94
2022-09-23T07:56:54.461Z,11.96
2022-09-23T07:59:01.931Z,12.01
2022-09-23T08:01:09.411Z,12.04
2022-09-23T08:03:13.195Z,12.05
2022-09-23T08:05:17.111Z,12.08
2022-09-23T08:07:21.049Z,12.10
2022-09-23T08:09:27.620Z,12.13
2022-09-23T08:11:31.830Z,12.21
2022-09-23T08:13:35.525Z,12.27
2022-09-23T08:15:39.173Z,12.36
2022-09-23T08:17:44.768Z,12.46
2022-09-23T08:19:48.848Z,12.57
2022-09-23T08:21:54.787Z,12.72
2022-09-23T08:23:58.815Z,12.86
2022-09-23T08:26:04.432Z,12.96
2022-09-23T08:28:08.418Z,12.96
2022-09-23T08:30:13.437Z,12.94
2022-09-23T08:32:17.407Z,12.92
2022-09-23T08:34:23.796Z,12.92
2022-09-23T08:36:27.799Z,12.93
2022-09-23T08:38:31.876Z,12.96
2022-09-23T08:40:38.382Z,12.98
2022-09-23T08:42:45.781Z,13.07
2022-09-23T08:44:53.202Z,13.21
2022-09-23T08:47:12.262Z,13.33
2022-09-23T08:49:25.501Z,13.50
2022-09-23T08:51:35.937Z,13.68
2022-09-23T08:53:40.858Z,13.84
2022-09-23T08:55:48.837Z,13.94
2022-09-23T08:58:24.663Z,14.00
2022-09-23T09:00:37.413Z,14.10
2022-09-23T09:02:41.219Z,14.21
2022-09-23T09:04:49.937Z,14.35
2022-09-23T09:07:12.405Z,14.42
2022-09-23T09:09:28.189Z,14.49
2022-09-23T09:11:37.701Z,14.53
2022-09-23T09:13:54.954Z,14.60
2022-09-23T09:16:18.812Z,14.61
2022-09-23T09:18:32.857Z,14.53
2022-09-23T09:20:43.243Z,14.32
2022-09-23T09:22:55.289Z,14.16
2022-09-23T09:25:06.295Z,14.10
2022-09-23T09:27:14.059Z,14.12
2022-09-23T09:29:34.958Z,14.19
2022-09-23T09:31:43.455Z,14.37
2022-09-23T09:33:53.093Z,14.51
2022-09-23T09:36:10.288Z,14.60
2022-09-23T09:38:14.561Z,14.69
2022-09-23T09:40:20.536Z,14.82
2022-09-23T09:42:28.834Z,14.93
2022-09-23T09:44:38.308Z,15.02
2022-09-23T09:46:56.239Z,14.98
2022-09-23T09:49:06.121Z,15.04
2022-09-23T09:51:23.588Z,15.18
2022-09-23T09:53:29.792Z,15.34
2022-09-23T09:55:34.108Z,15.50
2022-09-23T09:57:44.471Z,15.67
2022-09-23T09:59:48.754Z,15.77
2022-09-23T10:02:23.884Z,15.74
2022-09-23T10:04:36.871Z,15.66
2022-09-23T10:06:43.157Z,15.55
2022-09-23T10:09:06.753Z,15.37
2022-09-23T10:11:16.201Z,15.19
2022-09-23T10:13:25.354Z,15.22
2022-09-23T10:15:34.915Z,15.23
2022-09-23T10:17:41.671Z,15.22
2022-09-23T10:19:49.055Z,15.31
2022-09-23T10:22:00.211Z,15.49
2022-09-23T10:24:06.935Z,15.68
2022-09-23T10:26:13.224Z,15.69
2022-09-23T10:28:44.210Z,15.36
2022-09-23T10:31:05.963Z,15.15
2022-09-23T10:33:28.695Z,15.14
2022-09-23T10:35:33.262Z,15.20
2022-09-23T10:37:42.234Z,15.26
2022-09-23T10:40:03.750Z,15.23
2022-09-23T10:42:45.960Z,15.13
2022-09-23T10:45:20.610Z,15.18
2022-09-23T10:47:35.764Z,15.20
2022-09-23T10:50:05.256Z,15.34
2022-09-23T10:52:27.548Z,15.39
2022-09-23T10:54:42.098Z,15.46
2022-09-23T10:56:49.857Z,15.50
2022-09-23T10:59:19.430Z,15.51
2022-09-23T11:01:36.329Z,15.45
2022-09-23T11:04:18.422Z,15.16
2022-09-23T11:06:32.353Z,14.97
2022-09-23T11:08:53.179Z,15.03
2022-09-23T11:11:12.821Z,15.11
2022-09-23T11:13:28.424Z,15.31
2022-09-23T11:15:44.310Z,15.49
2022-09-23T11:18:12.168Z,15.62
2022-09-23T11:20:34.719Z,15.70
2022-09-23T11:22:57.410Z,15.65
2022-09-23T11:25:23.386Z,15.59
2022-09-23T11:27:45.885Z,15.53
2022-09-23T11:30:02.333Z,15.69
2022-09-23T11:32:27.921Z,15.86
2022-09-23T11:34:52.703Z,16.00
2022-09-23T11:37:03.445Z,16.10
2022-09-23T11:39:15.352Z,16.19
2022-09-23T11:41:24.300Z,16.19
2022-09-23T11:43:31.979Z,16.10
2022-09-23T11:45:40.933Z,16.06
2022-09-23T11:47:52.213Z,16.02
2022-09-23T11:49:59.932Z,16.01
2022-09-23T11:52:10.234Z,16.06
2022-09-23T11:54:21.710Z,16.12
2022-09-23T11:56:35.987Z,16.05
2022-09-23T11:58:51.416Z,15.92
2022-09-23T12:01:07.192Z,15.77
2022-09-23T12:03:19.294Z,15.69
2022-09-23T12:05:27.904Z,15.59
2022-09-23T12:07:45.899Z,15.44
2022-09-23T12:10:00.015Z,15.32
2022-09-23T12:12:13.688Z,15.21
2022-09-23T12:14:27.335Z,15.07
2022-09-23T12:16:53.955Z,15.14
2022-09-23T12:19:10.737Z,15.31
2022-09-23T12:21:50.553Z,15.42
2022-09-23T12:24:18.445Z,15.59
2022-09-23T12:26:26.095Z,15.78
2022-09-23T12:28:35.037Z,15.99
2022-09-23T12:30:42.308Z,16.15
2022-09-23T12:32:46.708Z,16.16
2022-09-23T12:34:53.081Z,16.15
2022-09-23T12:37:04.561Z,16.20
2022-09-23T12:39:17.412Z,16.24
2022-09-23T12:41:26.225Z,16.21
2022-09-23T12:43:32.049Z,16.12
2022-09-23T12:45:39.998Z,16.05
2022-09-23T12:47:45.551Z,16.03
2022-09-23T12:49:51.140Z,15.96
2022-09-23T12:52:27.071Z,15.93
2022-09-23T12:54:31.146Z,15.89
2022-09-23T12:57:03.826Z,15.86
2022-09-23T12:59:29.019Z,15.84
2022-09-23T13:01:38.580Z,15.82
2022-09-23T13:04:05.185Z,15.83
2022-09-23T13:06:29.723Z,15.90
2022-09-23T13:08:37.262Z,15.96
2022-09-23T13:10:45.974Z,15.99
2022-09-23T13:12:50.338Z,16.03
2022-09-23T13:14:58.427Z,16.06
2022-09-23T13:17:02.409Z,16.06
2022-09-23T13:19:28.632Z,16.05
2022-09-23T13:22:09.357Z,16.11
2022-09-23T13:24:21.022Z,16.14
2022-09-23T13:26:24.875Z,16.14
2022-09-23T13:28:37.067Z,16.09
2022-09-23T13:30:52.284Z,16.03
2022-09-23T13:33:06.649Z,15.93
2022-09-23T13:35:24.247Z,15.84
2022-09-23T13:37:42.467Z,15.71
2022-09-23T13:39:46.417Z,15.63
2022-09-23T13:41:50.705Z,15.62
2022-09-23T13:43:59.058Z,15.60
2022-09-23T13:46:05.834Z,15.50
2022-09-23T13:48:13.622Z,15.47
2022-09-23T13:50:23.623Z,15.44
2022-09-23T13:52:30.246Z,15.38
2022-09-23T13:54:36.584Z,15.34
2022-09-23T13:56:50.740Z,15.29
2022-09-23T13:58:56.936Z,15.24
2022-09-23T14:01:01.482Z,15.21
2022-09-23T14:03:18.388Z,15.22
2022-09-23T14:05:26.617Z,15.27
2022-09-23T14:07:30.595Z,15.33
2022-09-23T14:09:36.761Z,15.40
2022-09-23T14:11:40.562Z,15.47
2022-09-23T14:13:45.687Z,15.49
2022-09-23T14:15:50.646Z,15.49
2022-09-23T14:17:57.276Z,15.46
2022-09-23T14:20:01.016Z,15.45
2022-09-23T14:22:09.253Z,15.47
2022-09-23T14:24:20.993Z,15.49
2022-09-23T14:26:25.621Z,15.52
2022-09-23T14:28:30.093Z,15.60
2022-09-23T14:30:35.578Z,15.68
2022-09-23T14:32:41.644Z,15.79
2022-09-23T14:34:48.604Z,15.83
2022-09-23T14:37:09.715Z,15.81
2022-09-23T14:39:15.523Z,15.77
2022-09-23T14:41:24.184Z,15.76
2022-09-23T14:43:30.374Z,15.78
2022-09-23T14:45:37.955Z,15.84
2022-09-23T14:47:48.516Z,15.83
2022-09-23T14:50:07.107Z,15.82
2022-09-23T14:52:13.161Z,15.77
2022-09-23T14:54:34.596Z,15.70
2022-09-23T14:56:43.959Z,15.66
2022-09-23T14:58:54.028Z,15.72
2022-09-23T15:01:00.609Z,15.84
2022-09-23T15:03:06.196Z,15.96
2022-09-23T15:05:19.164Z,16.04
2022-09-23T15:07:24.084Z,16.08
2022-09-23T15:09:32.388Z,16.05
2022-09-23T15:11:37.197Z,15.92
2022-09-23T15:13:44.400Z,15.69
2022-09-23T15:15:48.662Z,15.47
2022-09-23T15:17:52.730Z,15.33
2022-09-23T15:19:59.231Z,15.18
2022-09-23T15:22:02.887Z,14.98
2022-09-23T15:24:06.977Z,14.79
2022-09-23T15:26:15.498Z,14.60
2022-09-23T15:28:23.763Z,14.40
2022-09-23T15:30:27.931Z,14.23
2022-09-23T15:32:31.521Z,14.07
2022-09-23T15:34:35.315Z,13.95
2022-09-23T15:36:39.020Z,13.86
2022-09-23T15:38:44.324Z,13.81
2022-09-23T15:40:48.599Z,13.77
2022-09-23T15:42:57.604Z,13.75
2022-09-23T15:45:01.238Z,13.73
2022-09-23T15:47:05.139Z,13.74
2022-09-23T15:49:16.340Z,13.76
2022-09-23T15:51:20.142Z,13.75
2022-09-23T15:53:25.986Z,13.72
2022-09-23T15:55:30.075Z,13.74
2022-09-23T15:57:33.916Z,13.75
2022-09-23T15:59:38.995Z,13.75
2022-09-23T16:01:44.751Z,13.77
2022-09-23T16:03:48.839Z,13.77
2022-09-23T16:05:53.467Z,13.77
2022-09-23T16:07:57.491Z,13.77
2022-09-23T16:10:01.467Z,13.82
2022-09-23T16:12:05.412Z,13.83
2022-09-23T16:14:14.609Z,13.84
2022-09-23T16:16:21.425Z,13.82
2022-09-23T16:18:25.782Z,13.81
2022-09-23T16:20:31.783Z,13.82
2022-09-23T16:22:36.478Z,13.81
2022-09-23T16:24:41.545Z,13.80
2022-09-23T16:26:47.019Z,13.76
2022-09-23T16:28:52.970Z,13.71
2022-09-23T16:30:57.063Z,13.68
2022-09-23T16:33:03.409Z,13.67
2022-09-23T16:35:08.735Z,13.68
2022-09-23T16:37:18.194Z,13.66
2022-09-23T16:39:23.039Z,13.62
2022-09-23T16:41:28.800Z,13.57
2022-09-23T16:43:39.648Z,13.53
2022-09-23T16:45:43.592Z,13.50
2022-09-23T16:47:49.889Z,13.50
2022-09-23T16:49:55.117Z,13.44
2022-09-23T16:51:59.921Z,13.43
2022-09-23T16:54:03.775Z,13.41
2022-09-23T16:56:09.788Z,13.38
2022-09-23T16:58:13.565Z,13.37
2022-09-23T17:00:34.952Z,13.38
2022-09-23T17:02:55.760Z,13.36
2022-09-23T17:05:01.989Z,13.37
2022-09-23T17:07:05.865Z,13.39
2022-09-23T17:09:09.926Z,13.39
2022-09-23T17:11:14.521Z,13.37
2022-09-23T17:13:18.406Z,13.35
2022-09-23T17:15:22.132Z,13.35
2022-09-23T17:17:26.031Z,13.36
2022-09-23T17:19:29.791Z,13.35
2022-09-23T17:21:35.250Z,13.35
2022-09-23T17:23:38.878Z,13.34
2022-09-23T17:25:48.736Z,13.32
2022-09-23T17:27:52.725Z,13.30
2022-09-23T17:29:56.929Z,13.30
2022-09-23T17:32:00.631Z,13.28
2022-09-23T17:34:04.762Z,13.26
2022-09-23T17:36:10.102Z,13.27
2022-09-23T17:38:15.592Z,13.26
2022-09-23T17:40:19.292Z,13.25
2022-09-23T17:42:24.453Z,13.25
2022-09-23T17:44:28.177Z,13.24
2022-09-23T17:46:32.845Z,13.23
2022-09-23T17:48:38.392Z,13.19
2022-09-23T17:50:42.748Z,13.18
2022-09-23T17:52:46.649Z,13.17
2022-09-23T17:54:53.955Z,13.15
2022-09-23T17:56:57.957Z,13.14
2022-09-23T17:59:03.590Z,13.13
2022-09-23T18:01:11.504Z,13.10
2022-09-23T18:03:22.266Z,13.10
2022-09-23T18:05:25.960Z,13.07
2022-09-23T18:07:29.811Z,13.07
2022-09-23T18:09:33.465Z,13.06
2022-09-23T18:11:41.118Z,13.05
2022-09-23T18:13:49.039Z,13.04
2022-09-23T18:15:53.363Z,13.04
2022-09-23T18:17:57.396Z,13.04
2022-09-23T18:20:01.073Z,13.04
2022-09-23T18:22:04.816Z,13.04
2022-09-23T18:24:31.324Z,13.04
2022-09-23T18:26:34.300Z,13.03
2022-09-23T18:28:40.480Z,13.02
2022-09-23T18:30:54.454Z,13.02
2022-09-23T18:32:59.380Z,13.01
2022-09-23T18:35:03.210Z,13.00
2022-09-23T18:37:15.300Z,13.00
2022-09-23T18:39:19.875Z,12.96
2022-09-23T18:41:24.203Z,12.91
2022-09-23T18:43:37.564Z,12.91
2022-09-23T18:45:55.476Z,12.89
2022-09-23T18:48:16.346Z,12.88
2022-09-23T18:50:37.596Z,12.84
2022-09-23T18:52:41.447Z,12.80
2022-09-23T18:54:45.124Z,12.76
2022-09-23T18:56:49.578Z,12.76
2022-09-23T18:58:55.550Z,12.70
2022-09-23T19:01:07.103Z,12.66
2022-09-23T19:03:11.456Z,12.65
2022-09-23T19:05:16.362Z,12.59
2022-09-23T19:07:20.435Z,12.58
2022-09-23T19:09:24.389Z,12.53
2022-09-23T19:11:28.116Z,12.51
2022-09-23T19:13:32.084Z,12.47
2022-09-23T19:15:35.953Z,12.47
2022-09-23T19:17:41.753Z,12.44
2022-09-23T19:19:46.395Z,12.42
2022-09-23T19:21:49.968Z,12.41
2022-09-23T19:23:55.793Z,12.42
2022-09-23T19:26:03.396Z,12.41
2022-09-23T19:28:08.531Z,12.43
2022-09-23T19:30:13.921Z,12.44
2022-09-23T19:32:17.692Z,12.45
2022-09-23T19:34:26.236Z,12.46
2022-09-23T19:36:33.403Z,12.48
2022-09-23T19:38:37.542Z,12.48
2022-09-23T19:40:41.380Z,12.49
2022-09-23T19:42:45.379Z,12.48
2022-09-23T19:44:50.587Z,12.47
2022-09-23T19:46:57.058Z,12.46
2022-09-23T19:49:03.391Z,12.46
2022-09-23T19:51:08.524Z,12.46
2022-09-23T19:53:13.172Z,12.47
2022-09-23T19:55:17.371Z,12.45
2022-09-23T19:57:21.630Z,12.46
2022-09-23T19:59:26.588Z,12.46
2022-09-23T20:01:32.153Z,12.46
2022-09-23T20:03:36.306Z,12.46
2022-09-23T20:05:40.989Z,12.46
2022-09-23T20:07:46.390Z,12.45
2022-09-23T20:09:50.066Z,12.45
2022-09-23T20:11:53.927Z,12.45
2022-09-23T20:14:01.884Z,12.44
2022-09-23T20:16:10.544Z,12.43
2022-09-23T20:18:14.264Z,12.40
2022-09-23T20:20:18.214Z,12.38
2022-09-23T20:22:32.974Z,12.40
2022-09-23T20:24:38.573Z,12.37
2022-09-23T20:27:00.319Z,12.35
2022-09-23T20:29:04.498Z,12.33
2022-09-23T20:31:09.888Z,12.35
2022-09-23T20:33:14.940Z,12.32
2022-09-23T20:35:18.534Z,12.32
2022-09-23T20:37:24.766Z,12.30
2022-09-23T20:39:29.251Z,12.32
2022-09-23T20:41:37.975Z,12.33
2022-09-23T20:43:44.062Z,12.30
2022-09-23T20:45:51.617Z,12.29
2022-09-23T20:47:56.163Z,12.28
2022-09-23T20:49:59.798Z,12.26
2022-09-23T20:52:04.036Z,12.23
2022-09-23T20:54:08.212Z,12.24
2022-09-23T20:56:12.263Z,12.23
2022-09-23T20:58:17.829Z,12.23
2022-09-23T21:00:21.628Z,12.22
2022-09-23T21:02:28.031Z,12.19
2022-09-23T21:04:32.442Z,12.19
2022-09-23T21:06:36.896Z,12.19
2022-09-23T21:08:41.310Z,12.16
2022-09-23T21:10:46.235Z,12.13
2022-09-23T21:12:51.534Z,12.13
2022-09-23T21:14:56.798Z,12.14
2022-09-23T21:17:01.014Z,12.12
2022-09-23T21:19:05.878Z,12.11
2022-09-23T21:21:12.605Z,12.07
2022-09-23T21:23:16.760Z,12.04
2022-09-23T21:25:29.073Z,12.00
2022-09-23T21:27:33.738Z,11.96
2022-09-23T21:29:38.117Z,11.93
2022-09-23T21:31:43.428Z,11.86
2022-09-23T21:33:47.006Z,11.85
2022-09-23T21:35:51.847Z,11.79
2022-09-23T21:37:55.533Z,11.73
2022-09-23T21:40:16.451Z,11.67
2022-09-23T21:42:20.450Z,11.63
2022-09-23T21:44:24.261Z,11.59
2022-09-23T21:46:29.261Z,11.55
2022-09-23T21:48:36.153Z,11.50
2022-09-23T21:50:41.269Z,11.47
2022-09-23T21:52:45.099Z,11.42
2022-09-23T21:54:49.207Z,11.37
2022-09-23T21:56:52.940Z,11.34
2022-09-23T21:58:57.921Z,11.31
2022-09-23T22:01:03.168Z,11.28
2022-09-23T22:03:07.890Z,11.25
2022-09-23T22:05:12.996Z,11.24
2022-09-23T22:07:16.907Z,11.20
2022-09-23T22:09:22.893Z,11.17
2022-09-23T22:11:44.872Z,11.14
2022-09-23T22:13:48.952Z,11.09
2022-09-23T22:15:52.589Z,11.04
2022-09-23T22:17:57.603Z,10.99
2022-09-23T22:20:01.750Z,10.98
2022-09-23T22:22:13.407Z,10.96
2022-09-23T22:24:17.555Z,10.94
2022-09-23T22:26:21.682Z,10.92
2022-09-23T22:28:43.093Z,10.88
2022-09-23T22:31:04.140Z,10.80
2022-09-23T22:33:09.619Z,10.73
2022-09-23T22:35:17.932Z,10.66
2022-09-23T22:37:27.350Z,10.60
2022-09-23T22:39:32.341Z,10.54
2022-09-23T22:43:58.717Z,10.39
2022-09-23T22:46:02.831Z,10.39
2022-09-23T22:48:07.071Z,10.37
2022-09-23T22:50:14.043Z,10.36
2022-09-23T22:52:24.599Z,10.36
2022-09-23T22:54:34.024Z,10.36
2022-09-23T22:56:38.174Z,10.36
2022-09-23T22:58:42.086Z,10.30
2022-09-23T23:00:46.267Z,10.27
2022-09-23T23:02:50.165Z,10.24
2022-09-23T23:04:56.419Z,10.21
2022-09-23T23:07:00.156Z,10.19
2022-09-23T23:09:04.089Z,10.15
2022-09-23T23:11:11.845Z,10.10
2022-09-23T23:13:16.755Z,10.06
2022-09-23T23:15:21.030Z,10.04
2022-09-23T23:17:24.883Z,10.04
2022-09-23T23:19:28.530Z,10.03
2022-09-23T23:21:32.902Z,10.04
2022-09-23T23:23:40.262Z,10.04
2022-09-23T23:25:44.623Z,10.03
2022-09-23T23:27:49.883Z,10.03
2022-09-23T23:29:53.600Z,10.05
2022-09-23T23:31:57.375Z,10.04
2022-09-23T23:34:01.376Z,10.05
2022-09-23T23:36:05.457Z,10.06
2022-09-23T23:38:12.749Z,10.06
2022-09-23T23:40:20.336Z,10.06
2022-09-23T23:42:24.267Z,10.06
2022-09-23T23:44:30.748Z,10.06
2022-09-23T23:46:34.999Z,10.07
2022-09-23T23:48:39.818Z,10.08
2022-09-23T23:50:43.550Z,10.10
2022-09-23T23:52:47.187Z,10.12
2022-09-23T23:54:51.045Z,10.12
2022-09-23T23:56:54.960Z,10.13
2022-09-23T23:59:00.639Z,10.14
